createdAt,value
2023-05-06T00:01:25.639Z,13.60
2023-05-06T00:03:52.800Z,13.60
2023-05-06T00:06:19.796Z,13.60
2023-05-06T00:08:46.906Z,13.70
2023-05-06T00:11:14.358Z,13.70
2023-05-06T00:13:41.685Z,13.70
2023-05-06T00:16:08.757Z,13.70
2023-05-06T00:18:35.705Z,13.60
2023-05-06T00:21:02.670Z,13.50
2023-05-06T00:23:29.634Z,13.50
2023-05-06T00:25:56.702Z,13.40
2023-05-06T00:28:23.988Z,13.50
2023-05-06T00:30:50.687Z,13.50
2023-05-06T00:33:17.407Z,13.40
2023-05-06T00:35:44.288Z,13.40
2023-05-06T00:38:13.409Z,13.40
2023-05-06T00:40:40.471Z,13.40
2023-05-06T00:43:07.300Z,13.40
2023-05-06T00:45:34.422Z,13.30
2023-05-06T00:48:01.268Z,13.30
2023-05-06T00:50:29.875Z,13.10
2023-05-06T00:52:57.736Z,13.00
2023-05-06T00:55:25.605Z,12.90
2023-05-06T00:57:52.967Z,12.90
2023-05-06T01:00:20.448Z,12.90
2023-05-06T01:02:48.382Z,12.80
2023-05-06T01:05:22.256Z,12.80
2023-05-06T01:08:02.039Z,12.80
2023-05-06T01:11:02.270Z,12.80
2023-05-06T01:13:39.150Z,12.80
2023-05-06T01:16:06.369Z,12.60
2023-05-06T01:18:33.910Z,12.70
2023-05-06T01:21:02.079Z,12.70
2023-05-06T01:23:29.101Z,12.60
2023-05-06T01:25:56.211Z,12.60
2023-05-06T01:28:23.254Z,12.60
2023-05-06T01:31:03.766Z,12.60
2023-05-06T01:34:01.186Z,12.60
2023-05-06T01:37:09.962Z,12.60
2023-05-06T01:39:37.326Z,12.70
2023-05-06T01:42:04.869Z,12.80
2023-05-06T01:44:33.366Z,12.80
2023-05-06T01:47:00.516Z,12.80
2023-05-06T01:49:27.842Z,12.80
2023-05-06T01:51:54.821Z,12.80
2023-05-06T01:54:21.852Z,12.80
2023-05-06T01:56:48.584Z,12.80
2023-05-06T01:59:15.691Z,12.80
2023-05-06T02:01:42.549Z,12.80
2023-05-06T02:04:09.594Z,12.80
2023-05-06T02:06:36.900Z,12.80
2023-05-06T02:09:04.819Z,12.70
2023-05-06T02:11:35.250Z,12.70
2023-05-06T02:14:06.264Z,12.60
2023-05-06T02:16:34.409Z,12.60
2023-05-06T02:19:01.699Z,12.60
2023-05-06T02:21:28.800Z,12.60
2023-05-06T02:23:55.817Z,12.50
2023-05-06T02:26:22.679Z,12.60
2023-05-06T02:28:49.792Z,12.60
2023-05-06T02:31:16.741Z,12.50
2023-05-06T02:33:44.907Z,12.50
2023-05-06T02:36:11.810Z,12.40
2023-05-06T02:38:38.802Z,12.20
2023-05-06T02:41:05.852Z,12.20
2023-05-06T02:43:33.011Z,12.20
2023-05-06T02:46:00.021Z,12.10
2023-05-06T02:48:26.823Z,12.10
2023-05-06T02:50:53.661Z,12.00
2023-05-06T02:53:20.789Z,11.90
2023-05-06T02:55:47.797Z,11.90
2023-05-06T02:58:14.568Z,11.80
2023-05-06T03:00:41.533Z,11.80
2023-05-06T03:03:08.831Z,11.80
2023-05-06T03:05:36.001Z,11.80
2023-05-06T03:08:04.691Z,11.80
2023-05-06T03:10:32.638Z,11.70
2023-05-06T03:13:00.801Z,11.70
2023-05-06T03:15:28.725Z,11.60
2023-05-06T03:17:56.042Z,11.40
2023-05-06T03:20:24.306Z,11.40
2023-05-06T03:22:55.819Z,11.30
2023-05-06T03:25:23.253Z,11.30
2023-05-06T03:27:50.733Z,11.40
2023-05-06T03:30:21.237Z,11.30
2023-05-06T03:32:50.155Z,11.30
2023-05-06T03:35:23.926Z,11.30
2023-05-06T03:37:55.761Z,11.30
2023-05-06T03:40:24.851Z,11.30
2023-05-06T03:42:52.496Z,11.30
2023-05-06T03:45:21.913Z,11.30
2023-05-06T03:47:49.257Z,11.30
2023-05-06T03:50:17.101Z,11.30
2023-05-06T03:52:45.575Z,11.30
2023-05-06T03:55:13.038Z,11.20
2023-05-06T03:57:40.465Z,11.20
2023-05-06T04:00:10.480Z,11.20
2023-05-06T04:02:43.629Z,11.20
2023-05-06T04:05:17.694Z,11.10
2023-05-06T04:07:45.586Z,11.20
2023-05-06T04:10:12.394Z,11.20
2023-05-06T04:12:41.393Z,11.20
2023-05-06T04:15:10.685Z,11.20
2023-05-06T04:17:38.066Z,11.30
2023-05-06T04:20:07.587Z,11.30
2023-05-06T04:22:35.367Z,11.30
2023-05-06T04:25:03.251Z,11.30
2023-05-06T04:27:32.402Z,11.30
2023-05-06T04:30:01.218Z,11.30
2023-05-06T04:32:29.877Z,11.30
2023-05-06T04:34:57.761Z,11.30
2023-05-06T04:37:25.529Z,11.20
2023-05-06T04:39:59.738Z,11.20
2023-05-06T04:42:26.708Z,11.30
2023-05-06T04:45:05.484Z,11.20
2023-05-06T04:47:34.281Z,11.30
2023-05-06T04:50:04.611Z,11.40
2023-05-06T04:52:32.204Z,11.40
2023-05-06T04:54:59.978Z,11.30
2023-05-06T04:57:27.130Z,11.30
2023-05-06T04:59:55.440Z,11.30
2023-05-06T05:02:22.663Z,11.40
2023-05-06T05:04:50.515Z,11.40
2023-05-06T05:07:17.758Z,11.50
2023-05-06T05:09:45.596Z,11.50
2023-05-06T05:12:13.057Z,11.60
2023-05-06T05:14:43.289Z,11.70
2023-05-06T05:17:12.504Z,11.80
2023-05-06T05:19:41.175Z,11.90
2023-05-06T05:22:08.994Z,12.00
2023-05-06T05:24:36.307Z,12.00
2023-05-06T05:27:03.662Z,12.00
2023-05-06T05:29:30.812Z,12.00
2023-05-06T05:31:59.949Z,12.10
2023-05-06T05:34:26.786Z,12.10
2023-05-06T05:36:54.779Z,12.10
2023-05-06T05:39:22.307Z,12.20
2023-05-06T05:41:49.402Z,12.30
2023-05-06T05:44:16.950Z,12.40
2023-05-06T05:46:44.407Z,12.60
2023-05-06T05:49:15.085Z,12.60
2023-05-06T05:51:42.257Z,12.70
2023-05-06T05:54:11.910Z,12.70
2023-05-06T05:56:41.111Z,12.80
2023-05-06T05:59:09.110Z,12.70
2023-05-06T06:01:36.432Z,12.80
2023-05-06T06:04:04.525Z,12.70
2023-05-06T06:06:31.727Z,12.70
2023-05-06T06:08:59.060Z,12.70
2023-05-06T06:11:28.477Z,12.70
2023-05-06T06:13:55.523Z,12.70
2023-05-06T06:16:22.660Z,12.80
2023-05-06T06:18:50.233Z,12.90
2023-05-06T06:21:18.123Z,12.80
2023-05-06T06:23:46.268Z,12.70
2023-05-06T06:26:13.383Z,12.90
2023-05-06T06:28:40.543Z,12.90
2023-05-06T06:31:07.720Z,12.90
2023-05-06T06:33:34.420Z,12.90
2023-05-06T06:36:01.163Z,13.00
2023-05-06T06:38:28.231Z,13.00
2023-05-06T06:40:55.263Z,13.10
2023-05-06T06:43:23.702Z,13.20
2023-05-06T06:45:59.977Z,13.20
2023-05-06T06:48:27.087Z,13.30
2023-05-06T06:50:53.964Z,13.40
2023-05-06T06:53:20.972Z,13.60
2023-05-06T06:55:47.950Z,13.70
2023-05-06T06:58:14.936Z,13.80
2023-05-06T07:00:42.642Z,13.90
2023-05-06T07:03:09.660Z,14.00
2023-05-06T07:05:36.765Z,13.90
2023-05-06T07:08:03.736Z,13.90
2023-05-06T07:10:30.871Z,13.90
2023-05-06T07:12:58.378Z,13.90
2023-05-06T07:15:25.900Z,14.00
2023-05-06T07:17:52.927Z,13.90
2023-05-06T07:20:19.628Z,13.80
2023-05-06T07:22:46.555Z,13.80
2023-05-06T07:25:13.584Z,13.80
2023-05-06T07:27:41.696Z,13.80
2023-05-06T07:30:08.995Z,13.80
2023-05-06T07:32:36.041Z,13.90
2023-05-06T07:35:03.653Z,14.00
2023-05-06T07:37:30.672Z,14.00
2023-05-06T07:39:58.308Z,14.10
2023-05-06T07:42:25.532Z,14.10
2023-05-06T07:44:52.748Z,14.30
2023-05-06T07:47:28.276Z,14.80
2023-05-06T07:49:56.013Z,15.20
2023-05-06T07:52:24.120Z,15.50
2023-05-06T07:54:51.328Z,15.70
2023-05-06T07:57:18.108Z,15.70
2023-05-06T07:59:47.552Z,15.60
2023-05-06T08:02:15.420Z,15.70
2023-05-06T08:04:42.889Z,15.90
2023-05-06T08:07:10.444Z,16.00
2023-05-06T08:09:37.783Z,16.30
2023-05-06T08:12:04.644Z,16.50
2023-05-06T08:14:31.598Z,16.80
2023-05-06T08:16:58.335Z,17.00
2023-05-06T08:19:26.379Z,17.30
2023-05-06T08:21:54.086Z,17.50
2023-05-06T08:24:21.002Z,17.70
2023-05-06T08:26:48.604Z,18.00
2023-05-06T08:29:15.310Z,17.90
2023-05-06T08:31:43.144Z,17.80
2023-05-06T08:34:10.159Z,17.80
2023-05-06T08:36:36.891Z,17.80
2023-05-06T08:39:04.507Z,17.80
2023-05-06T08:41:31.672Z,17.90
2023-05-06T08:43:58.713Z,17.80
2023-05-06T08:46:27.366Z,18.00
2023-05-06T08:48:54.396Z,18.10
2023-05-06T08:51:23.211Z,18.30
2023-05-06T08:53:52.538Z,18.30
2023-05-06T08:56:20.061Z,18.40
2023-05-06T08:58:46.835Z,18.40
2023-05-06T09:01:14.208Z,18.40
2023-05-06T09:03:41.306Z,18.60
2023-05-06T09:06:08.637Z,18.50
2023-05-06T09:08:36.283Z,18.60
2023-05-06T09:11:02.942Z,18.80
2023-05-06T09:13:30.687Z,18.80
2023-05-06T09:15:57.789Z,18.80
2023-05-06T09:18:25.100Z,18.80
2023-05-06T09:20:52.267Z,18.60
2023-05-06T09:23:21.637Z,18.80
2023-05-06T09:25:49.928Z,18.70
2023-05-06T09:28:17.504Z,19.00
2023-05-06T09:30:46.667Z,19.20
2023-05-06T09:33:13.842Z,19.20
2023-05-06T09:35:42.264Z,19.20
2023-05-06T09:38:09.480Z,19.50
2023-05-06T09:40:37.799Z,19.80
2023-05-06T09:43:12.666Z,19.60
2023-05-06T09:45:39.681Z,19.50
2023-05-06T09:48:08.334Z,19.60
2023-05-06T09:50:51.426Z,19.30
2023-05-06T09:53:18.348Z,19.30
2023-05-06T09:55:45.322Z,19.60
2023-05-06T09:58:13.437Z,19.50
2023-05-06T10:00:40.364Z,19.80
2023-05-06T10:03:07.734Z,19.80
2023-05-06T10:05:35.326Z,19.70
2023-05-06T10:08:04.106Z,20.00
2023-05-06T10:10:31.231Z,20.20
2023-05-06T10:12:58.220Z,19.70
2023-05-06T10:15:25.385Z,19.80
2023-05-06T10:17:52.684Z,20.40
2023-05-06T10:20:20.301Z,20.50
2023-05-06T10:22:49.576Z,20.70
2023-05-06T10:25:34.121Z,21.00
2023-05-06T10:28:02.689Z,20.50
2023-05-06T10:30:30.707Z,20.50
2023-05-06T10:32:58.184Z,20.70
2023-05-06T10:35:28.283Z,20.80
2023-05-06T10:37:56.449Z,20.70
2023-05-06T10:40:23.535Z,20.80
2023-05-06T10:42:51.502Z,21.20
2023-05-06T10:45:18.452Z,21.60
2023-05-06T10:47:57.739Z,21.70
2023-05-06T10:50:25.756Z,21.90
2023-05-06T10:52:57.265Z,22.20
2023-05-06T10:55:36.154Z,22.10
2023-05-06T10:58:14.722Z,22.20
2023-05-06T11:00:42.000Z,21.80
2023-05-06T11:03:11.760Z,21.70
2023-05-06T11:05:48.958Z,21.90
2023-05-06T11:08:16.977Z,22.10
2023-05-06T11:10:43.781Z,22.30
2023-05-06T11:13:19.921Z,22.40
2023-05-06T11:15:47.313Z,22.70
2023-05-06T11:18:34.148Z,22.40
2023-05-06T11:21:03.556Z,22.40
2023-05-06T11:23:59.479Z,22.10
2023-05-06T11:26:26.440Z,21.80
2023-05-06T11:28:53.735Z,22.00
2023-05-06T11:31:20.567Z,21.70
2023-05-06T11:33:52.818Z,21.40
2023-05-06T11:36:21.391Z,21.70
2023-05-06T11:38:49.848Z,21.50
2023-05-06T11:41:17.119Z,21.50
2023-05-06T11:43:53.701Z,21.20
2023-05-06T11:46:21.464Z,21.50
2023-05-06T11:48:49.088Z,21.40
2023-05-06T11:51:16.786Z,21.80
2023-05-06T11:53:44.049Z,22.30
2023-05-06T11:56:11.037Z,22.70
2023-05-06T11:58:37.950Z,22.90
2023-05-06T12:01:05.233Z,22.70
2023-05-06T12:03:33.484Z,22.60
2023-05-06T12:06:01.047Z,22.50
2023-05-06T12:08:30.319Z,22.30
2023-05-06T12:11:24.155Z,22.20
2023-05-06T12:13:51.204Z,22.20
2023-05-06T12:16:18.405Z,22.30
2023-05-06T12:18:45.418Z,22.30
2023-05-06T12:21:12.706Z,22.30
2023-05-06T12:23:51.214Z,22.30
2023-05-06T12:26:19.863Z,22.10
2023-05-06T12:28:46.864Z,22.20
2023-05-06T12:31:21.045Z,22.30
2023-05-06T12:33:51.407Z,22.30
2023-05-06T12:36:18.820Z,22.10
2023-05-06T12:38:59.209Z,22.00
2023-05-06T12:41:42.477Z,21.90
2023-05-06T12:44:38.705Z,21.90
2023-05-06T12:47:22.077Z,21.70
2023-05-06T12:49:53.720Z,21.60
2023-05-06T12:52:22.625Z,21.50
2023-05-06T12:54:51.809Z,21.50
2023-05-06T12:57:18.764Z,21.30
2023-05-06T12:59:46.175Z,21.20
2023-05-06T13:02:13.207Z,21.20
2023-05-06T13:04:40.741Z,21.20
2023-05-06T13:07:07.722Z,21.10
2023-05-06T13:09:34.708Z,20.90
2023-05-06T13:12:02.520Z,20.80
2023-05-06T13:14:29.588Z,20.80
2023-05-06T13:16:56.718Z,20.80
2023-05-06T13:19:32.413Z,20.80
2023-05-06T13:22:00.726Z,20.60
2023-05-06T13:24:27.954Z,20.50
2023-05-06T13:26:57.588Z,20.60
2023-05-06T13:29:24.607Z,20.60
2023-05-06T13:31:51.833Z,20.50
2023-05-06T13:34:18.833Z,20.30
2023-05-06T13:36:46.667Z,20.30
2023-05-06T13:39:13.832Z,20.20
2023-05-06T13:41:40.678Z,20.20
2023-05-06T13:44:07.726Z,20.20
2023-05-06T13:46:34.501Z,20.10
2023-05-06T13:49:02.597Z,20.30
2023-05-06T13:51:32.600Z,20.20
2023-05-06T13:53:59.609Z,20.30
2023-05-06T13:56:26.429Z,20.30
2023-05-06T13:58:53.522Z,20.40
2023-05-06T14:01:21.384Z,20.50
2023-05-06T14:03:48.582Z,20.50
2023-05-06T14:06:16.066Z,20.40
2023-05-06T14:08:43.590Z,20.40
2023-05-06T14:11:10.629Z,20.30
2023-05-06T14:13:37.418Z,20.20
2023-05-06T14:16:04.491Z,20.10
2023-05-06T14:18:32.694Z,20.10
2023-05-06T14:20:59.788Z,20.00
2023-05-06T14:23:26.482Z,20.10
2023-05-06T14:25:53.501Z,20.00
2023-05-06T14:28:20.725Z,19.90
2023-05-06T14:30:47.571Z,19.80
2023-05-06T14:33:14.881Z,19.70
2023-05-06T14:35:42.439Z,19.70
2023-05-06T14:38:10.259Z,19.70
2023-05-06T14:40:38.637Z,19.70
2023-05-06T14:43:07.409Z,19.70
2023-05-06T14:45:35.009Z,19.70
2023-05-06T14:48:02.310Z,19.70
2023-05-06T14:50:30.179Z,19.70
2023-05-06T14:52:57.200Z,19.70
2023-05-06T14:55:23.992Z,19.80
2023-05-06T14:57:51.387Z,19.80
2023-05-06T15:00:18.512Z,19.90
2023-05-06T15:02:45.553Z,19.80
2023-05-06T15:05:13.385Z,19.80
2023-05-06T15:07:40.655Z,19.80
2023-05-06T15:10:07.692Z,19.90
2023-05-06T15:12:35.151Z,19.90
2023-05-06T15:15:02.428Z,20.00
2023-05-06T15:17:29.434Z,20.00
2023-05-06T15:19:56.552Z,20.10
2023-05-06T15:22:23.520Z,20.10
2023-05-06T15:24:50.247Z,20.20
2023-05-06T15:27:17.214Z,20.20
2023-05-06T15:29:44.562Z,20.30
2023-05-06T15:32:12.052Z,20.30
2023-05-06T15:34:38.813Z,20.30
2023-05-06T15:37:06.429Z,20.20
2023-05-06T15:39:36.520Z,20.20
2023-05-06T15:42:04.285Z,20.20
2023-05-06T15:44:32.441Z,20.20
2023-05-06T15:46:59.178Z,20.10
2023-05-06T15:49:49.498Z,20.10
2023-05-06T15:52:13.667Z,20.10
2023-05-06T15:54:41.154Z,20.10
2023-05-06T15:57:08.126Z,20.20
2023-05-06T15:59:35.473Z,20.10
2023-05-06T16:04:32.323Z,20.10
2023-05-06T16:06:59.223Z,20.20
2023-05-06T16:09:26.314Z,20.20
2023-05-06T16:11:54.974Z,20.10
2023-05-06T16:14:23.460Z,20.20
2023-05-06T16:16:50.385Z,20.20
2023-05-06T16:19:18.682Z,20.20
2023-05-06T16:21:45.967Z,20.10
2023-05-06T16:24:13.238Z,20.10
2023-05-06T16:26:41.143Z,20.10
2023-05-06T16:29:08.992Z,20.10
2023-05-06T16:31:36.948Z,20.00
2023-05-06T16:34:04.250Z,20.00
2023-05-06T16:36:31.678Z,20.00
2023-05-06T16:38:58.475Z,20.00
2023-05-06T16:41:27.046Z,20.00
2023-05-06T16:43:54.402Z,19.90
2023-05-06T16:46:23.970Z,19.90
2023-05-06T16:48:52.749Z,19.90
2023-05-06T16:51:19.855Z,19.90
2023-05-06T16:53:46.797Z,19.90
2023-05-06T16:56:14.440Z,19.80
2023-05-06T16:58:42.520Z,19.80
2023-05-06T17:01:11.369Z,19.80
2023-05-06T17:03:38.720Z,19.70
2023-05-06T17:06:05.623Z,19.70
2023-05-06T17:08:36.029Z,19.60
2023-05-06T17:11:05.856Z,19.50
2023-05-06T17:13:32.935Z,19.40
2023-05-06T17:15:59.838Z,19.30
2023-05-06T17:18:27.159Z,19.30
2023-05-06T17:20:56.666Z,19.30
2023-05-06T17:23:24.713Z,19.30
2023-05-06T17:25:52.184Z,19.30
2023-05-06T17:31:06.624Z,19.20
2023-05-06T17:33:33.502Z,19.20
2023-05-06T17:36:00.556Z,19.10
2023-05-06T17:38:27.623Z,19.10
2023-05-06T17:40:54.546Z,19.00
2023-05-06T17:43:21.495Z,19.00
2023-05-06T17:45:48.626Z,18.90
2023-05-06T17:48:16.879Z,18.90
2023-05-06T17:50:43.959Z,18.90
2023-05-06T17:53:11.870Z,18.90
2023-05-06T17:55:39.763Z,18.90
2023-05-06T17:58:06.966Z,18.80
2023-05-06T18:00:34.215Z,18.80
2023-05-06T18:03:02.097Z,18.80
2023-05-06T18:05:29.181Z,18.70
2023-05-06T18:07:56.460Z,18.70
2023-05-06T18:10:23.675Z,18.70
2023-05-06T18:12:50.463Z,18.60
2023-05-06T18:15:17.532Z,18.60
2023-05-06T18:17:44.579Z,18.50
2023-05-06T18:20:12.176Z,18.50
2023-05-06T18:22:39.946Z,18.50
2023-05-06T18:25:07.527Z,18.50
2023-05-06T18:27:34.680Z,18.40
2023-05-06T18:30:01.669Z,18.40
2023-05-06T18:32:28.972Z,18.40
2023-05-06T18:34:56.947Z,18.40
2023-05-06T18:37:23.832Z,18.30
2023-05-06T18:39:51.558Z,18.30
2023-05-06T18:42:18.596Z,18.20
2023-05-06T18:44:45.884Z,18.20
2023-05-06T18:47:12.801Z,18.20
2023-05-06T18:49:39.636Z,18.20
2023-05-06T18:52:06.827Z,18.20
2023-05-06T18:54:33.526Z,18.10
2023-05-06T18:57:01.238Z,18.10
2023-05-06T18:59:28.304Z,18.10
2023-05-06T19:01:55.667Z,18.00
2023-05-06T19:04:23.085Z,18.00
2023-05-06T19:06:51.724Z,18.00
2023-05-06T19:09:18.810Z,18.00
2023-05-06T19:11:47.508Z,18.00
2023-05-06T19:14:14.612Z,17.90
2023-05-06T19:16:41.366Z,17.90
2023-05-06T19:19:08.709Z,17.90
2023-05-06T19:21:36.026Z,17.90
2023-05-06T19:24:03.263Z,17.90
2023-05-06T19:26:30.323Z,17.90
2023-05-06T19:28:57.510Z,17.80
2023-05-06T19:31:24.661Z,17.80
2023-05-06T19:33:51.744Z,17.70
2023-05-06T19:36:18.697Z,17.60
2023-05-06T19:38:45.589Z,17.50
2023-05-06T19:41:13.356Z,17.50
2023-05-06T19:43:43.966Z,17.30
2023-05-06T19:46:11.663Z,17.30
2023-05-06T19:48:41.530Z,17.20
2023-05-06T19:51:08.978Z,17.20
2023-05-06T19:53:36.540Z,17.20
2023-05-06T19:56:10.509Z,17.20
2023-05-06T19:58:37.979Z,17.20
2023-05-06T20:01:05.388Z,17.20
2023-05-06T20:03:32.710Z,17.10
2023-05-06T20:06:00.230Z,17.10
2023-05-06T20:08:27.569Z,17.10
2023-05-06T20:10:54.567Z,17.10
2023-05-06T20:13:21.440Z,17.10
2023-05-06T20:15:48.764Z,17.00
2023-05-06T20:18:15.597Z,17.00
2023-05-06T20:20:43.269Z,16.90
2023-05-06T20:23:10.330Z,16.90
2023-05-06T20:25:37.658Z,16.90
2023-05-06T20:28:07.800Z,16.90
2023-05-06T20:30:35.262Z,16.80
2023-05-06T20:33:02.404Z,16.80
2023-05-06T20:35:29.258Z,16.70
2023-05-06T20:37:56.273Z,16.60
2023-05-06T20:40:23.301Z,16.60
2023-05-06T20:42:50.041Z,16.50
2023-05-06T20:45:17.072Z,16.40
2023-05-06T20:47:44.603Z,16.40
2023-05-06T20:50:17.032Z,16.30
2023-05-06T20:52:47.501Z,16.30
2023-05-06T20:55:15.388Z,16.20
2023-05-06T20:57:44.601Z,16.20
2023-05-06T21:00:11.937Z,16.20
2023-05-06T21:02:41.425Z,16.20
2023-05-06T21:05:09.149Z,16.20
2023-05-06T21:07:36.529Z,16.10
2023-05-06T21:10:05.997Z,16.10
2023-05-06T21:12:33.607Z,16.10
2023-05-06T21:15:00.902Z,16.00
2023-05-06T21:17:28.715Z,16.00
2023-05-06T21:19:56.095Z,16.00
2023-05-06T21:22:23.425Z,15.90
2023-05-06T21:24:50.728Z,15.80
2023-05-06T21:27:17.814Z,15.70
2023-05-06T21:29:46.532Z,15.50
2023-05-06T21:32:14.651Z,15.40
2023-05-06T21:34:42.008Z,15.20
2023-05-06T21:37:09.137Z,15.30
2023-05-06T21:39:36.152Z,15.20
2023-05-06T21:42:02.868Z,15.20
2023-05-06T21:44:30.224Z,15.10
2023-05-06T21:46:57.086Z,15.10
2023-05-06T21:49:25.266Z,15.00
2023-05-06T21:51:52.255Z,14.90
2023-05-06T21:54:19.197Z,14.90
2023-05-06T21:56:46.590Z,14.90
2023-05-06T21:59:13.580Z,14.80
2023-05-06T22:01:40.753Z,14.70
2023-05-06T22:04:13.030Z,14.70
2023-05-06T22:06:40.579Z,14.60
2023-05-06T22:09:11.203Z,14.60
2023-05-06T22:11:38.563Z,14.60
2023-05-06T22:14:06.893Z,14.60
2023-05-06T22:16:35.268Z,14.50
2023-05-06T22:19:03.853Z,14.50
2023-05-06T22:21:32.027Z,14.50
2023-05-06T22:23:59.052Z,14.50
2023-05-06T22:26:27.943Z,14.60
2023-05-06T22:28:55.940Z,14.50
2023-05-06T22:31:24.474Z,14.50
2023-05-06T22:33:55.177Z,14.40
2023-05-06T22:36:21.894Z,14.40
2023-05-06T22:38:49.025Z,14.40
2023-05-06T22:41:17.512Z,14.30
2023-05-06T22:43:44.478Z,14.30
2023-05-06T22:46:11.980Z,14.40
2023-05-06T22:48:39.001Z,14.40
2023-05-06T22:51:06.023Z,14.30
2023-05-06T22:53:33.121Z,14.20
2023-05-06T22:55:59.888Z,14.20
2023-05-06T22:58:26.795Z,14.20
2023-05-06T23:00:54.269Z,14.10
2023-05-06T23:03:22.959Z,14.00
2023-05-06T23:05:50.076Z,14.00
2023-05-06T23:08:17.260Z,13.90
2023-05-06T23:10:44.240Z,13.90
2023-05-06T23:13:12.211Z,13.80
2023-05-06T23:15:39.553Z,13.70
2023-05-06T23:18:07.438Z,13.60
2023-05-06T23:20:34.816Z,13.60
2023-05-06T23:23:01.806Z,13.50
2023-05-06T23:25:28.549Z,13.50
2023-05-06T23:27:56.199Z,13.50
2023-05-06T23:30:23.081Z,13.50
2023-05-06T23:32:50.098Z,13.50
2023-05-06T23:35:18.470Z,13.50
2023-05-06T23:37:45.461Z,13.50
2023-05-06T23:40:15.015Z,13.40
2023-05-06T23:42:42.324Z,13.30
2023-05-06T23:45:10.034Z,13.30
2023-05-06T23:47:37.246Z,13.30
2023-05-06T23:50:05.611Z,13.30
2023-05-06T23:52:32.565Z,13.30
2023-05-06T23:54:59.510Z,13.30
2023-05-06T23:57:26.859Z,13.20
2023-05-06T23:59:54.588Z,13.20
